createdAt,value
2018-06-13T00:01:38.851Z,4.27
2018-06-13T00:04:07.114Z,4.00
2018-06-13T00:06:35.376Z,4.10
2018-06-13T00:09:05.693Z,3.90
2018-06-13T00:11:33.944Z,4.33
2018-06-13T00:14:02.645Z,4.17
2018-06-13T00:16:30.643Z,3.53
2018-06-13T00:18:58.890Z,4.03
2018-06-13T00:21:26.863Z,3.70
2018-06-13T00:23:54.868Z,3.40
2018-06-13T00:26:23.189Z,3.70
2018-06-13T00:28:51.444Z,3.60
2018-06-13T00:31:19.756Z,3.70
2018-06-13T00:33:48.061Z,3.93
2018-06-13T00:36:16.381Z,4.10
2018-06-13T00:38:44.696Z,3.67
2018-06-13T00:41:12.682Z,3.47
2018-06-13T00:43:40.959Z,3.40
2018-06-13T00:46:09.203Z,3.97
2018-06-13T00:48:37.214Z,3.20
2018-06-13T00:51:05.509Z,3.10
2018-06-13T00:53:33.778Z,3.37
2018-06-13T00:56:13.602Z,3.20
2018-06-13T00:58:41.902Z,3.70
2018-06-13T01:01:10.253Z,3.63
2018-06-13T01:03:38.519Z,3.43
2018-06-13T01:06:06.814Z,3.60
2018-06-13T01:08:35.083Z,3.60
2018-06-13T01:11:03.396Z,3.07
2018-06-13T01:13:31.700Z,3.90
2018-06-13T01:15:59.996Z,3.70
2018-06-13T01:18:28.027Z,3.60
2018-06-13T01:20:56.307Z,3.73
2018-06-13T01:23:24.594Z,3.47
2018-06-13T01:25:52.851Z,3.50
2018-06-13T01:28:21.124Z,3.83
2018-06-13T01:30:49.396Z,3.67
2018-06-13T01:33:17.673Z,3.77
2018-06-13T01:35:46.003Z,3.47
2018-06-13T01:38:14.324Z,3.57
2018-06-13T01:40:42.611Z,3.83
2018-06-13T01:43:10.935Z,3.70
2018-06-13T01:45:38.964Z,3.50
2018-06-13T01:48:07.228Z,3.17
2018-06-13T01:50:35.562Z,3.33
2018-06-13T01:53:03.603Z,2.80
2018-06-13T01:55:31.872Z,3.03
2018-06-13T01:58:00.135Z,3.13
2018-06-13T02:00:28.188Z,3.30
2018-06-13T02:02:56.500Z,3.43
2018-06-13T02:05:24.779Z,3.27
2018-06-13T02:07:53.100Z,3.20
2018-06-13T02:10:21.380Z,3.35
2018-06-13T02:12:49.669Z,2.90
2018-06-13T02:15:17.684Z,3.20
2018-06-13T02:17:46.037Z,2.97
2018-06-13T02:20:14.339Z,3.22
2018-06-13T02:22:42.652Z,3.27
2018-06-13T02:25:10.925Z,3.02
2018-06-13T02:27:39.171Z,3.03
2018-06-13T02:30:07.580Z,3.02
2018-06-13T02:32:35.937Z,3.87
2018-06-13T02:35:04.026Z,3.17
2018-06-13T02:37:32.307Z,3.17
2018-06-13T02:40:00.660Z,3.13
2018-06-13T02:42:28.963Z,3.12
2018-06-13T02:44:57.280Z,3.20
2018-06-13T02:47:25.580Z,3.72
2018-06-13T02:49:53.911Z,3.35
2018-06-13T02:52:22.204Z,3.40
2018-06-13T02:54:50.520Z,3.22
2018-06-13T02:57:18.763Z,3.10
2018-06-13T02:59:47.345Z,2.55
2018-06-13T03:02:15.606Z,2.60
2018-06-13T03:04:43.878Z,2.50
2018-06-13T03:07:12.147Z,2.63
2018-06-13T03:09:40.423Z,2.22
2018-06-13T03:12:08.716Z,2.77
2018-06-13T03:14:36.955Z,2.35
2018-06-13T03:17:05.237Z,2.17
2018-06-13T03:19:33.540Z,2.30
2018-06-13T03:22:01.845Z,2.08
2018-06-13T03:24:30.204Z,2.37
2018-06-13T03:26:58.537Z,2.42
2018-06-13T03:29:28.064Z,2.57
2018-06-13T03:31:56.444Z,2.40
2018-06-13T03:34:24.736Z,2.50
2018-06-13T03:36:53.035Z,2.45
2018-06-13T03:39:21.295Z,2.67
2018-06-13T03:41:49.547Z,2.60
2018-06-13T03:44:17.840Z,2.43
2018-06-13T03:46:46.174Z,2.47
2018-06-13T03:49:14.455Z,2.13
2018-06-13T03:51:42.739Z,2.17
2018-06-13T03:54:10.984Z,2.60
2018-06-13T03:56:39.249Z,2.40
2018-06-13T03:59:07.556Z,2.33
2018-06-13T04:01:35.859Z,2.60
2018-06-13T04:04:04.147Z,2.30
2018-06-13T04:06:32.453Z,2.90
2018-06-13T04:09:00.719Z,2.63
2018-06-13T04:11:29.041Z,2.92
2018-06-13T04:13:57.332Z,2.50
2018-06-13T04:16:25.612Z,2.40
2018-06-13T04:18:53.904Z,2.40
2018-06-13T04:21:21.898Z,2.70
2018-06-13T04:23:50.233Z,3.03
2018-06-13T04:26:18.504Z,2.97
2018-06-13T04:28:46.783Z,3.17
2018-06-13T04:31:15.069Z,2.87
2018-06-13T04:33:43.408Z,3.00
2018-06-13T04:36:11.713Z,2.70
2018-06-13T04:38:39.943Z,3.40
2018-06-13T04:41:08.236Z,2.97
2018-06-13T04:43:36.494Z,2.60
2018-06-13T04:46:04.822Z,2.83
2018-06-13T04:48:33.104Z,2.97
2018-06-13T04:51:01.385Z,3.40
2018-06-13T04:53:29.696Z,3.17
2018-06-13T04:55:57.993Z,3.03
2018-06-13T04:58:26.382Z,2.80
2018-06-13T05:00:54.678Z,3.43
2018-06-13T05:03:22.938Z,4.07
2018-06-13T05:05:51.225Z,4.73
2018-06-13T05:08:19.537Z,5.20
2018-06-13T05:10:47.768Z,5.30
2018-06-13T05:13:16.029Z,5.60
2018-06-13T05:15:44.332Z,5.57
2018-06-13T05:18:12.625Z,5.33
2018-06-13T05:20:40.631Z,5.17
2018-06-13T05:23:08.960Z,5.30
2018-06-13T05:25:37.224Z,4.83
2018-06-13T05:28:05.543Z,5.33
2018-06-13T05:30:33.837Z,5.13
2018-06-13T05:33:02.752Z,4.10
2018-06-13T05:35:31.051Z,4.70
2018-06-13T05:37:59.356Z,3.93
2018-06-13T05:40:27.351Z,4.50
2018-06-13T05:42:55.665Z,5.03
2018-06-13T05:45:23.896Z,4.30
2018-06-13T05:47:52.161Z,3.87
2018-06-13T05:50:20.480Z,3.87
2018-06-13T05:52:48.773Z,4.03
2018-06-13T05:55:17.079Z,3.63
2018-06-13T05:57:45.126Z,3.57
2018-06-13T06:00:13.492Z,3.67
2018-06-13T06:02:41.782Z,3.60
2018-06-13T06:05:10.109Z,3.77
2018-06-13T06:07:38.426Z,3.23
2018-06-13T06:10:06.700Z,3.17
2018-06-13T06:12:35.013Z,4.13
2018-06-13T06:15:03.346Z,4.40
2018-06-13T06:17:31.812Z,4.10
2018-06-13T06:20:00.074Z,3.93
2018-06-13T06:22:28.383Z,3.23
2018-06-13T06:24:56.685Z,3.57
2018-06-13T06:27:24.997Z,3.90
2018-06-13T06:29:53.400Z,3.03
2018-06-13T06:32:21.677Z,3.20
2018-06-13T06:34:49.968Z,3.40
2018-06-13T06:37:18.280Z,3.30
2018-06-13T06:39:46.549Z,3.37
2018-06-13T06:42:14.835Z,3.07
2018-06-13T06:44:43.671Z,3.20
2018-06-13T06:47:11.940Z,2.97
2018-06-13T06:49:40.389Z,2.53
2018-06-13T06:52:08.624Z,2.23
2018-06-13T06:54:36.912Z,2.50
2018-06-13T06:57:05.183Z,2.33
2018-06-13T06:59:34.912Z,1.93
2018-06-13T07:02:03.252Z,2.27
2018-06-13T07:04:31.577Z,2.27
2018-06-13T07:06:59.897Z,1.77
2018-06-13T07:09:28.177Z,2.70
2018-06-13T07:11:56.455Z,2.10
2018-06-13T07:14:24.757Z,2.50
2018-06-13T07:16:53.015Z,2.40
2018-06-13T07:19:21.459Z,2.63
2018-06-13T07:21:49.728Z,2.93
2018-06-13T07:24:17.728Z,3.10
2018-06-13T07:26:46.035Z,3.50
2018-06-13T07:29:14.498Z,3.77
2018-06-13T07:31:42.862Z,3.63
2018-06-13T07:34:11.148Z,3.97
2018-06-13T07:36:39.404Z,3.53
2018-06-13T07:39:08.847Z,2.87
2018-06-13T07:41:37.404Z,3.03
2018-06-13T07:44:05.928Z,3.30
2018-06-13T07:46:34.205Z,3.27
2018-06-13T07:49:02.483Z,3.27
2018-06-13T07:51:30.780Z,2.83
2018-06-13T07:53:59.091Z,2.27
2018-06-13T07:56:27.365Z,3.03
2018-06-13T07:58:55.657Z,2.80
2018-06-13T08:01:23.945Z,2.50
2018-06-13T08:03:52.195Z,2.03
2018-06-13T08:06:20.471Z,2.00
2018-06-13T08:08:48.779Z,2.00
2018-06-13T08:11:17.047Z,2.10
2018-06-13T08:13:45.345Z,2.40
2018-06-13T08:16:13.619Z,2.40
2018-06-13T08:18:42.244Z,2.60
2018-06-13T08:21:10.351Z,2.10
2018-06-13T08:23:38.413Z,2.13
2018-06-13T08:28:41.377Z,2.07
2018-06-13T08:31:09.756Z,2.00
2018-06-13T08:33:38.120Z,2.23
2018-06-13T08:36:06.411Z,2.47
2018-06-13T08:38:34.692Z,2.80
2018-06-13T08:41:03.072Z,2.23
2018-06-13T08:43:31.356Z,2.20
2018-06-13T08:45:59.390Z,2.13
2018-06-13T08:48:27.734Z,2.13
2018-06-13T08:50:56.063Z,2.53
2018-06-13T08:53:24.413Z,2.47
2018-06-13T08:55:52.641Z,2.40
2018-06-13T08:58:20.727Z,2.30
2018-06-13T09:00:48.994Z,2.30
2018-06-13T09:03:17.347Z,2.30
2018-06-13T09:05:45.628Z,2.00
2018-06-13T09:08:13.901Z,2.37
2018-06-13T09:10:42.175Z,2.33
2018-06-13T09:13:10.472Z,2.13
2018-06-13T09:15:38.609Z,1.80
2018-06-13T09:18:06.885Z,2.10
2018-06-13T09:20:35.178Z,2.00
2018-06-13T09:23:03.458Z,2.30
2018-06-13T09:25:31.751Z,2.03
2018-06-13T09:27:59.758Z,2.57
2018-06-13T09:30:28.084Z,1.90
2018-06-13T09:32:56.331Z,2.00
2018-06-13T09:35:24.588Z,1.90
2018-06-13T09:37:52.871Z,1.87
2018-06-13T09:40:21.201Z,2.53
2018-06-13T09:42:49.471Z,1.73
2018-06-13T09:45:17.788Z,1.63
2018-06-13T09:47:46.024Z,1.53
2018-06-13T09:50:14.307Z,1.80
2018-06-13T09:52:42.622Z,1.37
2018-06-13T09:55:10.888Z,1.60
2018-06-13T09:57:38.903Z,1.07
2018-06-13T10:00:12.660Z,1.60
2018-06-13T10:02:40.920Z,1.43
2018-06-13T10:05:09.320Z,1.50
2018-06-13T10:07:37.586Z,1.40
2018-06-13T10:10:05.851Z,1.10
2018-06-13T10:12:34.213Z,1.60
2018-06-13T10:15:02.490Z,1.63
2018-06-13T10:17:30.791Z,1.67
2018-06-13T10:19:59.100Z,1.33
2018-06-13T10:22:27.357Z,1.50
2018-06-13T10:24:55.665Z,1.90
2018-06-13T10:27:29.240Z,1.17
2018-06-13T10:29:57.496Z,1.50
2018-06-13T10:32:25.744Z,1.47
2018-06-13T10:34:54.072Z,1.30
2018-06-13T10:37:22.111Z,1.40
2018-06-13T10:39:50.448Z,1.20
2018-06-13T10:42:18.734Z,1.30
2018-06-13T10:44:47.092Z,1.10
2018-06-13T10:47:15.120Z,1.10
2018-06-13T10:49:43.443Z,1.33
2018-06-13T10:52:12.973Z,1.53
2018-06-13T10:54:41.248Z,1.40
2018-06-13T10:57:09.497Z,1.17
2018-06-13T10:59:37.889Z,1.30
2018-06-13T11:02:06.256Z,1.20
2018-06-13T11:04:34.277Z,1.30
2018-06-13T11:07:02.545Z,1.50
2018-06-13T11:09:30.850Z,1.33
2018-06-13T11:11:59.153Z,1.50
2018-06-13T11:14:27.410Z,1.63
2018-06-13T11:16:55.714Z,1.40
2018-06-13T11:19:24.040Z,1.37
2018-06-13T11:21:52.350Z,1.50
2018-06-13T11:24:20.600Z,1.90
2018-06-13T11:26:48.864Z,2.00
2018-06-13T11:29:17.742Z,1.80
2018-06-13T11:31:46.044Z,1.97
2018-06-13T11:34:14.320Z,1.63
2018-06-13T11:36:42.629Z,1.60
2018-06-13T11:39:11.575Z,1.83
2018-06-13T11:41:40.221Z,2.07
2018-06-13T11:44:08.456Z,2.20
2018-06-13T11:46:37.995Z,1.97
2018-06-13T11:49:06.121Z,1.70
2018-06-13T11:51:34.448Z,2.20
2018-06-13T11:54:02.708Z,1.70
2018-06-13T11:56:31.049Z,1.80
2018-06-13T11:58:59.326Z,1.90
2018-06-13T12:01:27.628Z,2.13
2018-06-13T12:03:55.906Z,2.07
2018-06-13T12:06:24.182Z,2.03
2018-06-13T12:08:52.449Z,2.10
2018-06-13T12:11:21.020Z,2.23
2018-06-13T12:13:49.615Z,2.70
2018-06-13T12:16:17.923Z,2.90
2018-06-13T12:18:46.242Z,2.90
2018-06-13T12:21:14.556Z,2.80
2018-06-13T12:23:42.791Z,2.67
2018-06-13T12:26:11.065Z,2.43
2018-06-13T12:28:39.099Z,2.40
2018-06-13T12:31:07.419Z,2.33
2018-06-13T12:33:35.707Z,2.30
2018-06-13T12:36:04.036Z,2.20
2018-06-13T12:38:32.372Z,2.77
2018-06-13T12:41:00.676Z,3.30
2018-06-13T12:43:28.973Z,3.40
2018-06-13T12:45:57.273Z,3.00
2018-06-13T12:48:25.702Z,3.00
2018-06-13T12:50:54.069Z,3.57
2018-06-13T12:53:22.148Z,3.13
2018-06-13T12:55:50.436Z,2.77
2018-06-13T12:58:18.764Z,3.33
2018-06-13T13:00:47.083Z,3.17
2018-06-13T13:03:15.398Z,3.30
2018-06-13T13:05:43.696Z,3.23
2018-06-13T13:08:11.968Z,3.53
2018-06-13T13:10:40.300Z,3.40
2018-06-13T13:13:08.584Z,3.33
2018-06-13T13:15:36.889Z,2.97
2018-06-13T13:18:05.217Z,2.80
2018-06-13T13:20:33.590Z,2.97
2018-06-13T13:23:01.824Z,3.50
2018-06-13T13:25:30.143Z,3.60
2018-06-13T13:27:58.484Z,3.13
2018-06-13T13:30:26.767Z,2.67
2018-06-13T13:32:55.039Z,2.70
2018-06-13T13:35:23.346Z,3.33
2018-06-13T13:37:51.676Z,2.70
2018-06-13T13:40:20.007Z,2.73
2018-06-13T13:42:48.930Z,2.60
2018-06-13T13:45:17.309Z,2.40
2018-06-13T13:47:45.572Z,2.47
2018-06-13T13:50:13.886Z,2.37
2018-06-13T13:52:42.173Z,1.80
2018-06-13T13:55:10.468Z,2.20
2018-06-13T13:57:38.777Z,2.33
2018-06-13T14:00:07.146Z,2.03
2018-06-13T14:02:36.228Z,1.80
2018-06-13T14:05:04.697Z,1.97
2018-06-13T14:07:33.015Z,2.07
2018-06-13T14:10:01.286Z,1.63
2018-06-13T14:12:29.563Z,1.90
2018-06-13T14:14:57.817Z,1.50
2018-06-13T14:17:26.076Z,1.40
2018-06-13T14:19:54.366Z,1.57
2018-06-13T14:22:22.836Z,1.70
2018-06-13T14:24:51.109Z,1.80
2018-06-13T14:27:19.408Z,1.60
2018-06-13T14:29:47.419Z,1.60
2018-06-13T14:32:15.680Z,1.67
2018-06-13T14:34:43.971Z,1.53
2018-06-13T14:37:12.362Z,1.93
2018-06-13T14:39:40.584Z,1.90
2018-06-13T14:42:09.184Z,1.67
2018-06-13T14:44:37.501Z,1.77
2018-06-13T14:47:05.847Z,1.60
2018-06-13T14:49:34.131Z,1.80
2018-06-13T14:52:02.392Z,3.87
2018-06-13T14:54:30.669Z,2.47
2018-06-13T14:56:58.962Z,2.20
2018-06-13T14:59:28.666Z,1.97
2018-06-13T15:01:57.052Z,1.63
2018-06-13T15:04:26.810Z,1.77
2018-06-13T15:06:55.122Z,1.70
2018-06-13T15:09:23.440Z,1.77
2018-06-13T15:11:51.702Z,1.60
2018-06-13T15:14:19.988Z,1.63
2018-06-13T15:16:48.533Z,1.77
2018-06-13T15:19:16.824Z,1.70
2018-06-13T15:21:45.121Z,1.60
2018-06-13T15:24:13.452Z,2.10
2018-06-13T15:26:41.796Z,1.80
2018-06-13T15:29:10.097Z,1.63
2018-06-13T15:31:38.238Z,1.93
2018-06-13T15:34:06.586Z,1.73
2018-06-13T15:36:34.924Z,1.43
2018-06-13T15:39:03.388Z,1.60
2018-06-13T15:41:38.106Z,1.60
2018-06-13T15:44:06.482Z,1.47
2018-06-13T15:46:34.768Z,1.50
2018-06-13T15:49:03.029Z,1.60
2018-06-13T15:51:31.381Z,1.73
2018-06-13T15:53:59.743Z,1.90
2018-06-13T15:56:27.743Z,1.50
2018-06-13T15:58:56.145Z,1.70
2018-06-13T16:01:24.412Z,1.70
2018-06-13T16:03:52.713Z,1.60
2018-06-13T16:06:21.083Z,1.40
2018-06-13T16:08:49.356Z,1.60
2018-06-13T16:11:17.672Z,1.20
2018-06-13T16:13:46.016Z,1.57
2018-06-13T16:16:14.336Z,2.00
2018-06-13T16:18:42.626Z,1.70
2018-06-13T16:21:10.921Z,1.20
2018-06-13T16:23:39.269Z,1.83
2018-06-13T16:26:07.591Z,1.33
2018-06-13T16:28:35.944Z,1.37
2018-06-13T16:31:04.264Z,1.10
2018-06-13T16:33:32.557Z,1.33
2018-06-13T16:36:00.523Z,1.40
2018-06-13T16:38:28.817Z,1.80
2018-06-13T16:40:57.095Z,1.13
2018-06-13T16:43:25.612Z,1.17
2018-06-13T16:45:53.909Z,1.70
2018-06-13T16:48:22.216Z,1.97
2018-06-13T16:51:01.816Z,1.63
2018-06-13T16:54:11.407Z,1.80
2018-06-13T16:56:40.208Z,1.80
2018-06-13T16:59:08.548Z,1.80
2018-06-13T17:01:36.897Z,1.53
2018-06-13T17:04:05.213Z,2.17
2018-06-13T17:06:33.483Z,1.93
2018-06-13T17:09:01.783Z,1.40
2018-06-13T17:11:30.057Z,1.53
2018-06-13T17:13:58.397Z,1.60
2018-06-13T17:16:26.748Z,1.97
2018-06-13T17:18:55.087Z,1.73
2018-06-13T17:21:23.324Z,1.40
2018-06-13T17:23:51.556Z,1.70
2018-06-13T17:26:19.898Z,1.70
2018-06-13T17:28:48.225Z,1.77
2018-06-13T17:31:16.479Z,1.37
2018-06-13T17:33:44.780Z,1.23
2018-06-13T17:36:13.058Z,1.60
2018-06-13T17:38:41.364Z,1.73
2018-06-13T17:41:09.670Z,1.30
2018-06-13T17:43:37.727Z,1.83
2018-06-13T17:46:06.116Z,1.50
2018-06-13T17:48:34.377Z,1.20
2018-06-13T17:51:02.825Z,1.47
2018-06-13T17:53:31.092Z,1.20
2018-06-13T17:55:59.398Z,1.67
2018-06-13T17:58:27.681Z,1.57
2018-06-13T18:00:55.989Z,1.20
2018-06-13T18:03:24.064Z,1.40
2018-06-13T18:05:52.531Z,1.13
2018-06-13T18:08:20.560Z,1.60
2018-06-13T18:10:48.985Z,1.80
2018-06-13T18:13:17.067Z,1.20
2018-06-13T18:15:45.551Z,1.40
2018-06-13T18:18:13.802Z,2.10
2018-06-13T18:20:42.082Z,1.40
2018-06-13T18:23:10.381Z,1.30
2018-06-13T18:25:38.637Z,1.50
2018-06-13T18:28:06.933Z,2.03
2018-06-13T18:30:35.229Z,1.87
2018-06-13T18:33:03.468Z,1.80
2018-06-13T18:35:31.774Z,1.20
2018-06-13T18:38:00.080Z,1.47
2018-06-13T18:40:28.352Z,1.40
2018-06-13T18:42:56.676Z,1.50
2018-06-13T18:45:24.720Z,1.40
2018-06-13T18:47:53.004Z,1.60
2018-06-13T18:50:21.268Z,1.20
2018-06-13T18:52:49.544Z,1.17
2018-06-13T18:55:17.874Z,1.30
2018-06-13T18:57:46.290Z,1.73
2018-06-13T19:00:14.652Z,1.33
2018-06-13T19:02:43.052Z,1.17
2018-06-13T19:05:11.319Z,1.20
2018-06-13T19:07:39.592Z,1.40
2018-06-13T19:10:07.911Z,1.23
2018-06-13T19:12:36.226Z,1.40
2018-06-13T19:15:04.500Z,1.50
2018-06-13T19:17:32.775Z,1.23
2018-06-13T19:20:01.074Z,0.93
2018-06-13T19:22:29.380Z,1.10
2018-06-13T19:24:57.641Z,1.07
2018-06-13T19:27:25.980Z,1.00
2018-06-13T19:29:54.473Z,1.47
2018-06-13T19:32:22.822Z,1.27
2018-06-13T19:34:51.145Z,0.97
2018-06-13T19:37:19.488Z,1.23
2018-06-13T19:39:47.832Z,0.97
2018-06-13T19:42:16.151Z,1.23
2018-06-13T19:44:44.468Z,1.40
2018-06-13T19:47:18.037Z,0.93
2018-06-13T19:49:46.379Z,1.30
2018-06-13T19:52:14.676Z,1.17
2018-06-13T19:54:48.396Z,1.37
2018-06-13T19:57:16.677Z,1.50
2018-06-13T19:59:45.307Z,1.83
2018-06-13T20:02:13.586Z,1.97
2018-06-13T20:04:47.372Z,1.73
2018-06-13T20:07:15.687Z,1.97
2018-06-13T20:09:43.708Z,1.60
2018-06-13T20:12:27.367Z,2.03
2018-06-13T20:15:01.060Z,1.50
2018-06-13T20:17:34.725Z,1.50
2018-06-13T20:20:03.024Z,1.23
2018-06-13T20:22:31.296Z,1.30
2018-06-13T20:25:04.959Z,1.50
2018-06-13T20:27:38.745Z,0.97
2018-06-13T20:30:12.422Z,1.03
2018-06-13T20:32:40.764Z,1.00
2018-06-13T20:35:09.019Z,1.33
2018-06-13T20:37:37.336Z,0.83
2018-06-13T20:40:05.628Z,1.20
2018-06-13T20:42:33.929Z,1.07
2018-06-13T20:45:02.277Z,0.90
2018-06-13T20:47:30.559Z,1.00
2018-06-13T20:49:58.853Z,1.17
2018-06-13T20:52:27.397Z,1.10
2018-06-13T20:54:55.755Z,1.00
2018-06-13T20:57:24.070Z,1.40
2018-06-13T20:59:52.901Z,1.07
2018-06-13T21:02:21.204Z,1.20
2018-06-13T21:04:49.477Z,1.03
2018-06-13T21:07:17.763Z,1.20
2018-06-13T21:09:46.068Z,0.93
2018-06-13T21:12:14.341Z,1.10
2018-06-13T21:14:42.685Z,1.33
2018-06-13T21:17:10.796Z,1.10
2018-06-13T21:19:39.085Z,1.20
2018-06-13T21:22:07.381Z,1.20
2018-06-13T21:24:35.781Z,1.37
2018-06-13T21:27:04.384Z,1.10
2018-06-13T21:29:33.133Z,1.40
2018-06-13T21:32:01.532Z,1.17
2018-06-13T21:34:29.837Z,1.10
2018-06-13T21:36:58.143Z,1.40
2018-06-13T21:39:26.461Z,1.07
2018-06-13T21:41:54.843Z,1.00
2018-06-13T21:44:23.086Z,1.30
2018-06-13T21:46:51.342Z,1.17
2018-06-13T21:49:19.609Z,1.10
2018-06-13T21:51:47.888Z,1.43
2018-06-13T21:54:16.175Z,1.20
2018-06-13T21:56:44.452Z,1.30
2018-06-13T21:59:12.742Z,1.30
2018-06-13T22:01:41.023Z,1.03
2018-06-13T22:04:09.360Z,1.07
2018-06-13T22:06:37.644Z,1.27
2018-06-13T22:09:07.781Z,1.30
2018-06-13T22:11:40.329Z,1.20
2018-06-13T22:14:08.687Z,1.20
2018-06-13T22:16:36.948Z,1.27
2018-06-13T22:19:04.991Z,1.10
2018-06-13T22:21:33.269Z,1.10
2018-06-13T22:24:01.589Z,1.47
2018-06-13T22:26:29.888Z,1.10
2018-06-13T22:28:58.177Z,1.53
2018-06-13T22:31:26.483Z,0.93
2018-06-13T22:33:55.068Z,1.50
2018-06-13T22:36:23.387Z,1.35
2018-06-13T22:38:51.692Z,1.22
2018-06-13T22:41:20.373Z,1.25
2018-06-13T22:43:48.673Z,1.40
2018-06-13T22:46:16.912Z,1.57
2018-06-13T22:48:45.169Z,1.67
2018-06-13T22:51:13.448Z,1.25
2018-06-13T22:53:41.748Z,1.27
2018-06-13T22:56:10.016Z,1.20
2018-06-13T22:58:38.325Z,1.02
2018-06-13T23:01:08.875Z,1.25
2018-06-13T23:03:37.204Z,1.17
2018-06-13T23:06:06.692Z,1.45
2018-06-13T23:08:35.815Z,1.40
2018-06-13T23:11:04.222Z,1.30
2018-06-13T23:13:32.510Z,1.45
2018-06-13T23:16:00.804Z,1.30
2018-06-13T23:18:31.311Z,1.35
2018-06-13T23:20:59.592Z,1.20
2018-06-13T23:23:27.868Z,1.33
2018-06-13T23:25:56.895Z,1.20
2018-06-13T23:28:25.172Z,1.40
2018-06-13T23:30:53.521Z,1.50
2018-06-13T23:33:21.826Z,1.40
2018-06-13T23:35:50.091Z,1.22
2018-06-13T23:38:18.358Z,1.42
2018-06-13T23:40:46.616Z,1.40
2018-06-13T23:43:14.948Z,1.00
2018-06-13T23:45:43.306Z,1.72
2018-06-13T23:48:11.579Z,1.27
2018-06-13T23:50:39.856Z,1.70
2018-06-13T23:53:08.158Z,1.40
2018-06-13T23:55:36.467Z,1.30
2018-06-13T23:58:04.756Z,1.30
